Time;durP1;ratioP1;P1;durP2;ratioP2;P2;SDS_P1;SDS_P2;PMS_P1;PMS_P2;Temp;Humidity;BMP_temperature;BMP_pressure;BME280_temperature;BME280_humidity;BME280_pressure;Samples;Min_cycle;Max_cycle;Signal;HPM_P1;HPM_P2
2021/08/20 00:00:14;;;;;;;15.73;9.25;;;17.00;97.40;;;;;;5046850;28;20040;-75
2021/08/20 00:02:39;;;;;;;17.85;9.48;;;17.00;97.40;;;;;;5031532;28;20033;-75
2021/08/20 00:05:06;;;;;;;16.90;8.75;;;17.00;97.40;;;;;;5030521;28;20022;-76
2021/08/20 00:07:32;;;;;;;16.80;8.32;;;16.90;97.40;;;;;;5030484;28;20026;-74
2021/08/20 00:09:58;;;;;;;15.95;9.18;;;16.90;97.30;;;;;;5031120;28;20064;-75
2021/08/20 00:12:24;;;;;;;16.27;8.70;;;16.90;97.40;;;;;;5030165;28;20076;-75
2021/08/20 00:14:51;;;;;;;16.75;9.15;;;16.90;97.40;;;;;;5031202;28;20021;-75
2021/08/20 00:17:16;;;;;;;18.90;8.60;;;16.90;97.40;;;;;;5031403;28;20425;-75
2021/08/20 00:19:42;;;;;;;19.88;9.25;;;16.90;97.40;;;;;;5029815;28;20026;-75
2021/08/20 00:22:09;;;;;;;17.08;8.70;;;16.80;97.40;;;;;;5030308;28;20021;-75
2021/08/20 00:24:35;;;;;;;16.20;8.30;;;16.80;97.50;;;;;;5029496;28;20062;-75
2021/08/20 00:27:01;;;;;;;16.70;9.27;;;16.70;97.50;;;;;;5029364;28;20025;-75
2021/08/20 00:29:27;;;;;;;15.85;7.88;;;16.70;97.60;;;;;;5031346;28;20121;-75
2021/08/20 00:31:53;;;;;;;17.08;9.05;;;16.70;97.60;;;;;;5029584;28;20052;-74
2021/08/20 00:34:19;;;;;;;14.38;8.30;;;16.60;97.70;;;;;;5031782;28;20044;-75
2021/08/20 00:36:45;;;;;;;13.05;7.60;;;16.60;97.70;;;;;;5030687;28;20026;-75
2021/08/20 00:39:12;;;;;;;15.23;8.32;;;16.60;97.70;;;;;;5030470;28;20048;-76
2021/08/20 00:41:42;;;;;;;16.63;8.00;;;16.60;97.70;;;;;;5031356;28;20033;-75
2021/08/20 00:44:08;;;;;;;14.38;7.43;;;16.60;97.70;;;;;;5035088;28;20040;-75
2021/08/20 00:46:34;;;;;;;13.43;7.85;;;16.60;97.60;;;;;;5033869;28;20032;-74
2021/08/20 00:49:00;;;;;;;13.23;8.38;;;16.60;97.60;;;;;;5034115;28;20038;-75
2021/08/20 00:51:30;;;;;;;15.15;8.52;;;16.60;97.60;;;;;;5033669;28;20029;-74
2021/08/20 00:53:56;;;;;;;13.30;7.68;;;16.60;97.60;;;;;;5033124;28;20052;-75
2021/08/20 00:56:22;;;;;;;15.38;7.60;;;16.50;97.60;;;;;;5033801;28;20033;-75
2021/08/20 00:58:48;;;;;;;16.13;8.00;;;16.50;97.60;;;;;;5034175;28;20377;-75
2021/08/20 01:01:14;;;;;;;15.63;8.45;;;16.60;97.70;;;;;;5035071;28;20022;-75
2021/08/20 01:03:40;;;;;;;13.57;7.88;;;16.60;97.70;;;;;;5034686;28;20033;-74
2021/08/20 01:06:06;;;;;;;14.02;8.30;;;16.50;97.60;;;;;;5032954;28;20374;-75
2021/08/20 01:08:34;;;;;;;17.23;8.05;;;16.50;97.60;;;;;;5034748;28;20075;-74
2021/08/20 01:11:01;;;;;;;16.73;6.90;;;16.50;97.60;;;;;;5033886;28;20043;-75
2021/08/20 01:13:32;;;;;;;12.20;7.57;;;16.50;97.60;;;;;;5034523;28;20025;-75
2021/08/20 01:15:58;;;;;;;16.65;9.10;;;16.50;97.60;;;;;;5032862;28;20025;-75
2021/08/20 01:18:35;;;;;;;12.75;7.80;;;16.50;97.50;;;;;;5035000;28;20466;-74
2021/08/20 01:21:07;;;;;;;13.13;7.90;;;16.50;97.50;;;;;;5033751;28;20428;-75
2021/08/20 01:23:32;;;;;;;12.88;7.15;;;16.50;97.50;;;;;;5034708;28;20167;-75
2021/08/20 01:25:59;;;;;;;11.18;6.80;;;16.50;97.50;;;;;;5032525;28;20483;-75
2021/08/20 01:28:26;;;;;;;14.18;8.20;;;16.50;97.50;;;;;;5034526;28;20033;-74
2021/08/20 01:31:02;;;;;;;13.20;7.68;;;16.50;97.50;;;;;;5032531;28;20535;-74
2021/08/20 01:33:30;;;;;;;14.35;7.28;;;16.50;97.50;;;;;;5034500;28;20026;-74
2021/08/20 01:35:56;;;;;;;13.18;7.20;;;16.50;97.50;;;;;;5032469;28;20130;-74
2021/08/20 01:38:22;;;;;;;12.00;7.22;;;16.50;97.50;;;;;;5034285;28;20569;-74
2021/08/20 01:40:48;;;;;;;14.10;7.43;;;16.50;97.50;;;;;;5033833;28;20116;-74
2021/08/20 01:43:14;;;;;;;13.27;7.50;;;16.50;97.50;;;;;;5033040;28;20057;-74
2021/08/20 01:45:40;;;;;;;13.23;7.50;;;16.50;97.50;;;;;;5033889;28;20433;-74
2021/08/20 01:48:06;;;;;;;13.57;6.95;;;16.50;97.40;;;;;;5033331;28;20026;-74
2021/08/20 01:50:34;;;;;;;12.55;7.32;;;16.50;97.50;;;;;;5034032;28;20048;-74
2021/08/20 01:53:00;;;;;;;13.48;7.50;;;16.50;97.40;;;;;;5033402;28;20036;-74
2021/08/20 01:55:25;;;;;;;13.05;7.40;;;16.50;97.40;;;;;;5032764;28;20029;-74
2021/08/20 01:57:51;;;;;;;12.18;7.28;;;16.50;97.40;;;;;;5033764;28;20365;-75
2021/08/20 02:00:17;;;;;;;12.68;7.63;;;16.50;97.50;;;;;;5034144;28;20052;-74
2021/08/20 02:02:43;;;;;;;13.80;7.68;;;16.40;97.50;;;;;;5033630;28;20022;-74
2021/08/20 02:05:09;;;;;;;12.23;6.55;;;16.40;97.50;;;;;;5033282;28;20021;-74
2021/08/20 02:07:36;;;;;;;13.88;7.70;;;16.30;97.50;;;;;;5032345;28;20033;-74
2021/08/20 02:10:06;;;;;;;13.10;7.35;;;16.30;97.50;;;;;;5031734;28;20040;-74
2021/08/20 02:12:32;;;;;;;14.13;6.93;;;16.30;97.60;;;;;;5033625;28;20056;-74
2021/08/20 02:14:57;;;;;;;14.85;7.35;;;16.30;97.60;;;;;;5032852;28;20064;-74
2021/08/20 02:17:23;;;;;;;14.82;7.43;;;16.30;97.60;;;;;;5032190;28;20449;-74
2021/08/20 02:19:48;;;;;;;14.38;7.47;;;16.30;97.50;;;;;;5033289;28;20047;-74
2021/08/20 02:22:14;;;;;;;13.75;6.95;;;16.40;97.50;;;;;;5032336;28;20104;-74
2021/08/20 02:24:40;;;;;;;14.48;7.03;;;16.40;97.70;;;;;;5032060;28;20457;-74
2021/08/20 02:27:05;;;;;;;14.45;7.57;;;16.50;97.40;;;;;;5032398;28;20029;-74
2021/08/20 02:29:31;;;;;;;12.88;6.93;;;16.50;97.30;;;;;;5031324;28;20029;-74
2021/08/20 02:31:57;;;;;;;14.20;7.43;;;16.50;97.30;;;;;;5032309;28;20057;-74
2021/08/20 02:34:22;;;;;;;13.30;7.78;;;16.50;97.30;;;;;;5032888;28;20036;-74
2021/08/20 02:36:48;;;;;;;16.13;8.15;;;16.50;97.20;;;;;;5032779;28;20159;-78
2021/08/20 02:39:14;;;;;;;14.57;8.02;;;16.50;97.10;;;;;;5033070;28;20038;-74
2021/08/20 02:41:40;;;;;;;12.45;7.10;;;16.60;97.40;;;;;;5032836;28;20030;-74
2021/08/20 02:44:05;;;;;;;15.10;8.07;;;16.60;97.10;;;;;;5032362;28;20461;-74
2021/08/20 02:46:31;;;;;;;12.15;6.88;;;16.60;97.10;;;;;;5033227;28;20523;-74
2021/08/20 02:48:57;;;;;;;13.55;7.22;;;16.60;97.10;;;;;;5030935;28;20033;-74
2021/08/20 02:51:23;;;;;;;17.63;7.95;;;16.60;97.10;;;;;;5032729;28;20034;-74
2021/08/20 02:53:48;;;;;;;18.70;7.50;;;16.50;97.00;;;;;;5031651;28;20378;-75
2021/08/20 02:56:14;;;;;;;10.00;6.57;;;16.50;97.10;;;;;;5030712;28;20021;-75
2021/08/20 02:58:39;;;;;;;18.60;7.85;;;16.50;97.00;;;;;;5032539;28;20022;-75
2021/08/20 03:01:05;;;;;;;14.75;7.45;;;16.60;97.10;;;;;;5031109;28;20022;-75
2021/08/20 03:03:31;;;;;;;12.93;6.90;;;16.50;97.00;;;;;;5031360;28;20116;-75
2021/08/20 03:05:57;;;;;;;16.98;8.38;;;16.50;97.00;;;;;;5030356;28;20112;-75
2021/08/20 03:08:22;;;;;;;12.95;7.50;;;16.50;96.90;;;;;;5032546;28;20049;-75
2021/08/20 03:10:48;;;;;;;15.15;7.93;;;16.50;96.90;;;;;;5031227;28;20064;-75
2021/08/20 03:13:14;;;;;;;17.42;9.02;;;16.50;96.90;;;;;;5031741;28;20086;-75
2021/08/20 03:15:39;;;;;;;15.80;8.32;;;16.50;96.90;;;;;;5032410;28;20084;-75
2021/08/20 03:18:05;;;;;;;13.98;7.47;;;16.50;96.90;;;;;;5031532;28;20029;-75
2021/08/20 03:20:31;;;;;;;13.20;7.75;;;16.50;96.90;;;;;;5032224;28;20108;-76
2021/08/20 03:22:57;;;;;;;13.57;8.00;;;16.60;96.90;;;;;;5031401;28;20456;-76
2021/08/20 03:25:23;;;;;;;15.18;8.27;;;16.50;96.80;;;;;;5047725;28;20079;-75
2021/08/20 03:27:49;;;;;;;17.70;8.63;;;16.60;96.90;;;;;;5030632;28;20033;-75
2021/08/20 03:30:14;;;;;;;19.60;9.45;;;16.60;96.90;;;;;;5030133;28;20037;-75
2021/08/20 03:32:40;;;;;;;19.60;9.57;;;16.60;96.80;;;;;;5032310;28;20088;-75
2021/08/20 03:35:06;;;;;;;18.13;8.50;;;16.60;96.80;;;;;;5031700;28;20473;-75
2021/08/20 03:37:32;;;;;;;17.38;9.38;;;16.60;96.80;;;;;;5032212;28;20100;-74
2021/08/20 03:39:58;;;;;;;16.00;8.82;;;16.60;96.80;;;;;;5031292;28;20159;-75
2021/08/20 03:42:23;;;;;;;18.88;9.75;;;16.60;96.80;;;;;;5032103;28;20132;-75
2021/08/20 03:44:49;;;;;;;17.30;9.85;;;16.60;96.80;;;;;;5032102;28;20033;-74
2021/08/20 03:47:15;;;;;;;16.50;8.63;;;16.60;96.80;;;;;;5030156;28;20029;-75
2021/08/20 03:49:41;;;;;;;18.65;10.32;;;16.60;96.90;;;;;;5030312;28;20482;-74
2021/08/20 03:52:07;;;;;;;16.15;7.95;;;16.60;96.90;;;;;;5031088;28;20032;-74
2021/08/20 03:54:32;;;;;;;15.55;8.27;;;16.60;96.90;;;;;;5032075;28;20430;-74
2021/08/20 03:56:58;;;;;;;18.27;9.35;;;16.60;96.80;;;;;;5031394;28;20029;-74
2021/08/20 03:59:24;;;;;;;22.00;11.07;;;16.60;96.80;;;;;;5031693;28;20033;-74
2021/08/20 04:01:49;;;;;;;18.83;10.35;;;16.60;96.80;;;;;;5031914;28;20075;-74
2021/08/20 04:04:15;;;;;;;23.05;11.38;;;16.60;96.80;;;;;;5031292;28;20072;-75
2021/08/20 04:06:41;;;;;;;16.60;9.32;;;16.60;96.80;;;;;;5031920;28;20057;-75
2021/08/20 04:09:07;;;;;;;15.93;7.97;;;16.60;97.10;;;;;;5029778;28;20030;-75
2021/08/20 04:11:32;;;;;;;16.92;8.70;;;16.60;96.80;;;;;;5031681;28;20442;-75
2021/08/20 04:14:02;;;;;;;20.90;9.07;;;16.60;96.80;;;;;;5031004;28;20382;-75
2021/08/20 04:16:29;;;;;;;16.50;8.02;;;16.60;96.80;;;;;;5031543;28;20117;-75
2021/08/20 04:18:56;;;;;;;19.25;9.13;;;16.70;96.90;;;;;;5033650;28;20018;-74
2021/08/20 04:21:22;;;;;;;18.85;9.20;;;16.70;96.80;;;;;;5035569;28;20108;-74
2021/08/20 04:23:47;;;;;;;19.77;9.48;;;16.70;96.90;;;;;;5035332;28;20060;-74
2021/08/20 04:26:13;;;;;;;21.65;10.85;;;16.70;96.90;;;;;;5035367;28;20025;-74
2021/08/20 04:28:39;;;;;;;18.08;9.57;;;16.70;96.80;;;;;;5035369;28;20030;-76
2021/08/20 04:31:05;;;;;;;20.88;10.65;;;16.70;96.80;;;;;;5034695;28;20505;-76
2021/08/20 04:33:31;;;;;;;23.42;9.73;;;16.70;96.80;;;;;;5033747;28;20037;-75
2021/08/20 04:35:56;;;;;;;23.02;10.02;;;16.70;96.80;;;;;;5034140;28;20025;-80
2021/08/20 04:38:22;;;;;;;18.98;8.85;;;16.80;96.90;;;;;;5033958;28;20124;-78
2021/08/20 04:40:48;;;;;;;17.25;9.52;;;16.80;96.80;;;;;;5034137;28;20037;-77
2021/08/20 04:43:13;;;;;;;21.58;11.48;;;16.80;96.80;;;;;;5033481;28;20036;-74
2021/08/20 04:45:40;;;;;;;19.73;10.10;;;16.70;96.80;;;;;;5035448;28;20107;-76
2021/08/20 04:48:06;;;;;;;20.90;12.00;;;16.80;96.80;;;;;;5033366;28;20053;-77
2021/08/20 04:50:32;;;;;;;19.02;10.23;;;16.70;96.80;;;;;;5033736;28;20057;-77
2021/08/20 04:52:58;;;;;;;17.98;8.55;;;16.80;96.80;;;;;;5034926;28;20029;-80
2021/08/20 04:55:24;;;;;;;20.50;9.52;;;16.80;96.90;;;;;;5033917;28;20022;-74
2021/08/20 04:57:50;;;;;;;20.83;11.20;;;16.80;96.80;;;;;;5033745;28;20543;-77
2021/08/20 05:00:16;;;;;;;18.98;9.45;;;16.80;96.80;;;;;;5034568;28;20021;-77
2021/08/20 05:02:43;;;;;;;18.98;10.23;;;16.80;96.80;;;;;;5033904;28;20025;-77
2021/08/20 05:05:09;;;;;;;17.48;8.70;;;16.80;96.80;;;;;;5034186;28;20099;-75
2021/08/20 05:07:36;;;;;;;14.05;7.28;;;16.80;96.80;;;;;;5032706;28;20025;-75
2021/08/20 05:10:06;;;;;;;18.35;8.82;;;16.80;96.80;;;;;;5032942;28;20029;-75
2021/08/20 05:12:33;;;;;;;17.30;8.73;;;16.90;96.80;;;;;;5035250;28;20048;-75
2021/08/20 05:14:59;;;;;;;22.48;10.23;;;16.80;96.80;;;;;;5033034;28;20423;-75
2021/08/20 05:17:25;;;;;;;19.95;9.90;;;16.90;96.80;;;;;;5015009;28;20136;-75
2021/08/20 05:19:50;;;;;;;18.48;10.00;;;16.80;96.80;;;;;;5014159;28;20473;-74
2021/08/20 05:22:16;;;;;;;18.10;8.90;;;16.80;96.80;;;;;;5013664;28;20022;-75
2021/08/20 05:24:41;;;;;;;20.02;9.45;;;16.90;96.80;;;;;;5013579;28;20026;-74
2021/08/20 05:27:07;;;;;;;20.52;10.02;;;16.90;96.80;;;;;;5012918;28;20434;-75
2021/08/20 05:29:33;;;;;;;20.05;10.68;;;16.90;96.90;;;;;;5014066;28;20565;-74
2021/08/20 05:31:58;;;;;;;24.40;9.52;;;16.90;96.90;;;;;;5014593;28;20052;-74
2021/08/20 05:34:24;;;;;;;13.45;6.50;;;16.90;96.90;;;;;;5012685;28;20425;-75
2021/08/20 05:36:50;;;;;;;20.83;9.30;;;16.90;96.80;;;;;;5014863;28;20072;-74
2021/08/20 05:39:15;;;;;;;17.73;9.07;;;16.90;96.80;;;;;;5013616;28;20113;-74
2021/08/20 05:41:41;;;;;;;18.10;9.18;;;16.90;96.90;;;;;;5013526;28;20351;-75
2021/08/20 05:44:07;;;;;;;23.63;10.38;;;16.90;96.90;;;;;;5012561;28;20061;-75
2021/08/20 05:46:32;;;;;;;21.17;9.07;;;16.90;96.90;;;;;;5014120;28;20038;-75
2021/08/20 05:48:58;;;;;;;18.63;8.48;;;16.90;96.90;;;;;;5013888;28;20386;-74
2021/08/20 05:51:25;;;;;;;19.75;8.95;;;16.90;96.90;;;;;;5013436;28;20037;-74
2021/08/20 05:53:51;;;;;;;17.08;8.07;;;16.90;96.90;;;;;;5014269;28;20050;-74
2021/08/20 05:56:17;;;;;;;16.63;8.27;;;16.90;96.90;;;;;;5013382;28;20380;-75
2021/08/20 05:58:42;;;;;;;14.95;7.20;;;16.90;96.90;;;;;;5013887;28;20026;-75
2021/08/20 06:01:08;;;;;;;17.20;8.95;;;17.00;96.90;;;;;;5013246;28;20022;-74
2021/08/20 06:03:34;;;;;;;20.33;8.98;;;17.00;96.80;;;;;;5014089;28;20469;-77
2021/08/20 06:05:59;;;;;;;18.05;8.88;;;17.00;96.80;;;;;;5012615;28;20426;-75
2021/08/20 06:08:25;;;;;;;20.67;9.07;;;17.10;96.80;;;;;;5013630;28;20022;-77
2021/08/20 06:10:52;;;;;;;19.92;9.07;;;17.10;97.00;;;;;;5012581;28;20065;-75
2021/08/20 06:13:18;;;;;;;19.92;9.68;;;17.20;96.80;;;;;;5011899;28;20105;-76
2021/08/20 06:15:43;;;;;;;17.15;8.50;;;17.20;96.70;;;;;;5014166;28;20084;-74
2021/08/20 06:18:09;;;;;;;25.05;10.20;;;17.20;96.70;;;;;;5012941;28;20443;-77
2021/08/20 06:20:35;;;;;;;22.75;10.23;;;17.20;96.70;;;;;;5013525;28;20523;-76
2021/08/20 06:23:00;;;;;;;21.27;10.45;;;17.20;96.70;;;;;;5012447;28;20021;-74
2021/08/20 06:25:26;;;;;;;19.30;9.38;;;17.30;96.70;;;;;;5011757;28;20425;-76
2021/08/20 06:27:52;;;;;;;22.20;10.27;;;17.30;96.70;;;;;;5013311;28;20355;-75
2021/08/20 06:30:17;;;;;;;21.27;9.18;;;17.30;96.60;;;;;;5011675;28;20041;-75
2021/08/20 06:32:43;;;;;;;22.23;8.80;;;17.30;96.60;;;;;;5013329;28;20050;-74
2021/08/20 06:35:09;;;;;;;21.92;10.27;;;17.30;96.70;;;;;;5011548;28;20485;-75
2021/08/20 06:37:34;;;;;;;19.58;9.65;;;17.30;96.70;;;;;;5013487;28;20458;-74
2021/08/20 06:40:02;;;;;;;25.95;11.00;;;17.30;96.70;;;;;;5011429;28;20377;-74
2021/08/20 06:42:28;;;;;;;15.70;7.93;;;17.30;96.70;;;;;;5012702;28;20026;-74
2021/08/20 06:44:53;;;;;;;23.27;10.32;;;17.30;96.70;;;;;;5011989;28;20029;-74
2021/08/20 06:47:19;;;;;;;21.25;9.55;;;17.40;96.60;;;;;;5012562;28;20073;-74
2021/08/20 06:49:45;;;;;;;18.02;8.35;;;17.50;96.50;;;;;;5013191;28;20033;-74
2021/08/20 06:52:11;;;;;;;16.63;7.88;;;17.70;96.40;;;;;;5011287;28;20108;-75
2021/08/20 06:54:37;;;;;;;18.75;8.75;;;17.80;96.30;;;;;;5012781;28;20037;-74
2021/08/20 06:57:03;;;;;;;16.58;7.78;;;17.80;96.20;;;;;;5011789;28;20092;-77
2021/08/20 06:59:29;;;;;;;16.27;7.55;;;17.90;96.10;;;;;;5012442;28;20026;-77
2021/08/20 07:01:55;;;;;;;19.25;9.07;;;18.00;96.10;;;;;;5012749;28;20157;-77
2021/08/20 07:04:20;;;;;;;18.08;9.60;;;18.10;96.00;;;;;;5012170;28;20045;-77
2021/08/20 07:06:46;;;;;;;16.42;7.13;;;18.10;96.00;;;;;;5012646;28;20055;-76
2021/08/20 07:09:12;;;;;;;18.00;7.80;;;18.10;96.00;;;;;;5011958;28;20026;-77
2021/08/20 07:11:37;;;;;;;18.40;7.78;;;18.10;96.10;;;;;;5011843;28;20425;-76
2021/08/20 07:14:03;;;;;;;15.38;7.88;;;18.00;96.20;;;;;;5012862;28;20018;-73
2021/08/20 07:16:29;;;;;;;13.93;7.55;;;18.00;96.20;;;;;;5010946;28;20482;-77
2021/08/20 07:18:55;;;;;;;16.17;7.78;;;18.00;96.20;;;;;;5013017;28;20060;-76
2021/08/20 07:21:20;;;;;;;15.32;6.95;;;18.00;96.20;;;;;;5011924;28;20058;-74
2021/08/20 07:23:46;;;;;;;17.45;6.70;;;18.00;96.20;;;;;;5011429;28;20022;-74
2021/08/20 07:26:13;;;;;;;15.35;8.02;;;18.10;96.20;;;;;;5010697;28;20069;-75
2021/08/20 07:28:40;;;;;;;14.98;7.53;;;18.20;96.10;;;;;;5011259;28;20032;-77
2021/08/20 07:31:06;;;;;;;17.25;8.70;;;18.20;96.00;;;;;;5012027;28;20038;-74
2021/08/20 07:33:32;;;;;;;18.88;8.25;;;18.20;96.00;;;;;;5011461;28;20188;-74
2021/08/20 07:35:57;;;;;;;16.23;8.55;;;18.30;96.00;;;;;;5012610;28;20463;-74
2021/08/20 07:38:23;;;;;;;18.42;8.73;;;18.30;96.00;;;;;;5010480;28;20022;-74
2021/08/20 07:40:49;;;;;;;16.92;8.43;;;18.40;95.90;;;;;;5011094;28;20030;-75
2021/08/20 07:43:15;;;;;;;17.15;8.25;;;18.40;95.90;;;;;;5011805;28;20026;-74
2021/08/20 07:45:40;;;;;;;17.80;8.63;;;18.50;95.90;;;;;;5011008;28;20121;-74
2021/08/20 07:48:07;;;;;;;14.85;7.43;;;18.40;95.80;;;;;;5010974;28;20080;-74
2021/08/20 07:50:32;;;;;;;19.77;8.82;;;18.40;96.00;;;;;;5009927;28;20117;-76
2021/08/20 07:52:58;;;;;;;18.50;9.23;;;18.40;96.00;;;;;;5012708;28;20105;-75
2021/08/20 07:55:24;;;;;;;12.43;7.10;;;18.40;96.00;;;;;;5012074;28;20466;-74
2021/08/20 07:57:52;;;;;;;15.45;8.70;;;18.50;96.00;;;;;;5011401;28;20022;-74
2021/08/20 08:00:26;;;;;;;15.43;8.07;;;18.60;95.90;;;;;;5010430;28;20033;-75
2021/08/20 08:02:52;;;;;;;18.70;10.27;;;18.70;95.80;;;;;;5012293;28;20022;-75
2021/08/20 08:05:18;;;;;;;18.30;8.65;;;18.70;95.70;;;;;;5010200;28;20029;-75
2021/08/20 08:07:44;;;;;;;13.32;7.72;;;18.80;95.70;;;;;;5012098;28;20033;-74
2021/08/20 08:10:10;;;;;;;17.50;8.27;;;18.90;95.60;;;;;;5010634;28;20034;-74
2021/08/20 08:12:37;;;;;;;16.17;8.43;;;19.00;95.50;;;;;;5010182;28;20053;-76
2021/08/20 08:15:04;;;;;;;11.57;6.65;;;19.00;95.40;;;;;;5012304;28;20033;-76
2021/08/20 08:17:30;;;;;;;19.60;9.98;;;19.00;95.40;;;;;;5011500;28;20513;-74
2021/08/20 08:19:55;;;;;;;15.27;8.73;;;19.00;95.40;;;;;;5010667;28;20030;-75
2021/08/20 08:22:21;;;;;;;14.43;8.50;;;19.00;95.40;;;;;;5010086;28;20024;-75
2021/08/20 08:24:47;;;;;;;16.30;9.38;;;19.10;95.40;;;;;;5010930;28;20108;-75
2021/08/20 08:27:13;;;;;;;12.55;7.03;;;19.10;95.40;;;;;;5012136;28;20026;-77
2021/08/20 08:29:38;;;;;;;12.93;8.27;;;19.10;95.50;;;;;;5011924;28;20102;-75
2021/08/20 08:32:04;;;;;;;16.67;9.65;;;19.10;95.40;;;;;;5011473;28;20140;-75
2021/08/20 08:34:30;;;;;;;16.90;8.88;;;19.10;95.40;;;;;;5011270;28;20033;-75
2021/08/20 08:36:55;;;;;;;16.67;8.52;;;19.20;95.60;;;;;;5010582;28;20374;-75
2021/08/20 08:39:21;;;;;;;15.95;8.85;;;19.20;95.30;;;;;;5009564;28;20466;-75
2021/08/20 08:41:47;;;;;;;16.55;9.13;;;19.30;95.30;;;;;;5011657;28;20053;-75
2021/08/20 08:44:12;;;;;;;16.92;9.18;;;19.30;95.20;;;;;;5011801;28;20073;-75
2021/08/20 08:46:38;;;;;;;15.55;8.63;;;19.40;95.10;;;;;;5009890;28;20014;-76
2021/08/20 08:49:05;;;;;;;12.50;7.68;;;19.60;95.00;;;;;;5010490;28;20025;-76
2021/08/20 08:51:31;;;;;;;17.83;8.75;;;19.60;94.90;;;;;;5011165;28;20115;-75
2021/08/20 08:53:56;;;;;;;18.15;9.90;;;19.70;94.80;;;;;;5011459;28;20054;-74
2021/08/20 08:56:22;;;;;;;17.20;9.02;;;19.70;94.80;;;;;;5009864;28;20033;-74
2021/08/20 08:58:48;;;;;;;15.50;9.00;;;19.60;94.90;;;;;;5011918;28;20038;-74
2021/08/20 09:01:32;;;;;;;11.45;6.72;;;19.60;95.00;;;;;;5010398;28;20034;-74
2021/08/20 09:04:24;;;;;;;15.63;9.15;;;19.60;95.10;;;;;;5013182;28;20030;-75
2021/08/20 09:06:55;;;;;;;14.85;7.93;;;19.70;95.00;;;;;;5014954;28;20053;-75
2021/08/20 09:09:23;;;;;;;12.80;7.90;;;19.70;94.90;;;;;;5014466;28;20436;-76
2021/08/20 09:11:52;;;;;;;16.10;8.93;;;19.80;94.80;;;;;;5015120;28;20463;-75
2021/08/20 09:14:18;;;;;;;15.80;9.45;;;19.90;94.70;;;;;;5013115;28;20017;-75
2021/08/20 09:16:47;;;;;;;17.33;9.43;;;20.00;94.80;;;;;;5015163;28;20018;-75
2021/08/20 09:19:19;;;;;;;13.50;7.97;;;20.00;94.40;;;;;;5014578;28;20034;-75
2021/08/20 09:22:09;;;;;;;13.05;7.35;;;20.10;94.30;;;;;;5014838;28;20025;-75
2021/08/20 09:24:40;;;;;;;12.97;7.63;;;20.20;94.20;;;;;;5005907;28;20034;-75
2021/08/20 09:27:14;;;;;;;12.25;7.20;;;20.20;94.10;;;;;;5013505;28;20026;-75
2021/08/20 09:29:59;;;;;;;13.95;8.40;;;20.20;94.10;;;;;;5014258;28;20169;-75
2021/08/20 09:32:25;;;;;;;14.68;9.27;;;20.20;94.10;;;;;;5012659;28;20077;-78
2021/08/20 09:34:52;;;;;;;13.85;7.93;;;20.10;94.10;;;;;;5013491;28;20112;-75
2021/08/20 09:37:20;;;;;;;12.98;8.00;;;20.10;94.10;;;;;;5014456;28;20037;-77
2021/08/20 09:39:47;;;;;;;12.80;7.80;;;20.20;93.90;;;;;;5014703;28;20026;-76
2021/08/20 09:42:14;;;;;;;12.05;6.85;;;20.30;93.80;;;;;;5013388;28;20018;-76
2021/08/20 09:44:39;;;;;;;15.27;8.38;;;20.30;93.80;;;;;;5012641;28;20021;-76
2021/08/20 09:47:06;;;;;;;13.75;8.13;;;20.30;93.60;;;;;;5014515;28;20084;-78
2021/08/20 09:49:51;;;;;;;13.95;7.13;;;20.30;93.50;;;;;;5013833;28;20029;-75
2021/08/20 09:52:30;;;;;;;11.32;6.35;;;20.30;93.50;;;;;;5014450;28;20109;-78
2021/08/20 09:54:56;;;;;;;13.43;6.72;;;20.50;93.50;;;;;;5013077;28;20029;-75
2021/08/20 09:57:26;;;;;;;11.48;6.63;;;20.50;93.40;;;;;;5012379;28;20365;-75
2021/08/20 09:59:57;;;;;;;10.68;6.88;;;20.50;93.40;;;;;;5013014;28;20074;-76
2021/08/20 10:02:30;;;;;;;10.13;5.93;;;20.50;93.40;;;;;;5013638;28;20103;-76
2021/08/20 10:04:58;;;;;;;12.68;7.38;;;20.50;93.40;;;;;;5014239;28;20026;-76
2021/08/20 10:07:26;;;;;;;10.38;5.72;;;20.50;93.40;;;;;;5013318;28;20382;-76
2021/08/20 10:09:52;;;;;;;15.48;7.00;;;20.60;93.30;;;;;;5013971;28;20506;-76
2021/08/20 10:12:23;;;;;;;11.48;6.55;;;20.60;93.00;;;;;;5012763;28;20026;-76
2021/08/20 10:14:50;;;;;;;10.95;5.90;;;20.70;93.10;;;;;;5011764;28;20030;-76
2021/08/20 10:17:16;;;;;;;9.88;4.97;;;20.70;93.10;;;;;;5013793;28;20029;-76
2021/08/20 10:19:43;;;;;;;11.23;6.75;;;20.70;93.10;;;;;;5013253;28;20026;-76
2021/08/20 10:22:09;;;;;;;11.32;5.47;;;20.70;92.90;;;;;;5014694;28;20100;-76
2021/08/20 10:24:36;;;;;;;12.05;6.05;;;20.60;93.00;;;;;;5013577;28;20498;-77
2021/08/20 10:27:05;;;;;;;11.27;5.65;;;20.60;93.10;;;;;;5013620;28;20084;-76
2021/08/20 10:29:36;;;;;;;9.18;5.40;;;20.60;93.20;;;;;;5013027;28;20034;-75
2021/08/20 10:32:05;;;;;;;10.73;5.57;;;20.60;93.20;;;;;;5013494;28;20375;-75
2021/08/20 10:34:31;;;;;;;10.93;5.95;;;20.60;93.10;;;;;;5011715;28;20457;-75
2021/08/20 10:37:18;;;;;;;9.38;4.85;;;20.70;93.10;;;;;;5013260;28;20513;-75
2021/08/20 10:39:48;;;;;;;11.30;5.97;;;20.70;93.00;;;;;;5028064;28;20084;-75
2021/08/20 10:42:20;;;;;;;8.55;4.55;;;20.80;92.70;;;;;;5012210;28;20493;-76
2021/08/20 10:45:13;;;;;;;9.75;5.32;;;20.80;92.60;;;;;;5011600;28;20080;-76
2021/08/20 10:47:40;;;;;;;7.40;3.58;;;20.80;92.30;;;;;;5013026;28;20018;-75
2021/08/20 10:50:17;;;;;;;10.73;4.05;;;20.80;92.40;;;;;;5011886;28;20045;-75
2021/08/20 10:52:44;;;;;;;7.53;4.05;;;20.90;92.20;;;;;;5012738;28;20462;-75
2021/08/20 10:55:14;;;;;;;9.30;4.70;;;21.00;92.10;;;;;;5011913;28;20450;-75
2021/08/20 10:57:42;;;;;;;6.78;3.50;;;21.00;91.90;;;;;;5012467;28;20018;-76
2021/08/20 11:00:21;;;;;;;6.13;3.22;;;21.10;92.00;;;;;;5011783;28;20072;-75
2021/08/20 11:02:48;;;;;;;5.15;2.85;;;21.20;91.90;;;;;;5011263;28;20026;-76
2021/08/20 11:05:14;;;;;;;7.07;3.50;;;21.20;91.80;;;;;;5013336;28;20026;-75
2021/08/20 11:07:43;;;;;;;8.48;4.20;;;21.20;91.60;;;;;;5012156;28;20081;-76
2021/08/20 11:10:09;;;;;;;6.28;3.33;;;21.30;91.50;;;;;;5011700;28;20065;-75
2021/08/20 11:12:44;;;;;;;6.68;3.65;;;21.30;91.70;;;;;;5012019;28;20053;-76
2021/08/20 11:15:33;;;;;;;6.88;3.70;;;21.30;91.30;;;;;;5012671;28;20032;-75
2021/08/20 11:18:04;;;;;;;4.63;2.65;;;21.30;91.20;;;;;;5005078;28;20088;-76
2021/08/20 11:20:44;;;;;;;5.45;2.95;;;21.30;91.10;;;;;;5012291;28;20025;-75
2021/08/20 11:23:13;;;;;;;6.75;3.35;;;21.30;90.80;;;;;;5012758;28;20109;-75
2021/08/20 11:25:44;;;;;;;4.63;2.63;;;21.30;90.80;;;;;;5010717;28;20556;-75
2021/08/20 11:28:17;;;;;;;5.30;2.60;;;21.40;90.70;;;;;;5011198;28;20458;-75
2021/08/20 11:30:59;;;;;;;4.10;2.38;;;21.60;90.30;;;;;;5010450;28;20036;-74
2021/08/20 11:33:35;;;;;;;3.88;2.08;;;21.70;90.20;;;;;;5019672;28;20056;-75
2021/08/20 11:36:08;;;;;;;3.85;2.03;;;21.80;90.00;;;;;;5019608;28;20041;-75
2021/08/20 11:38:41;;;;;;;4.00;1.70;;;21.90;89.30;;;;;;5021261;28;20025;-76
2021/08/20 11:41:22;;;;;;;4.63;2.47;;;22.00;89.30;;;;;;5020883;28;20044;-76
2021/08/20 11:44:00;;;;;;;5.25;2.95;;;22.00;88.70;;;;;;5019096;28;20056;-75
2021/08/20 11:46:37;;;;;;;5.13;2.55;;;22.00;87.90;;;;;;5023914;28;20072;-77
2021/08/20 11:49:05;;;;;;;5.63;2.28;;;21.90;87.60;;;;;;5022701;28;20025;-76
2021/08/20 11:51:39;;;;;;;4.63;2.60;;;21.80;87.90;;;;;;5023584;28;20030;-76
2021/08/20 11:54:11;;;;;;;6.85;3.85;;;21.90;87.30;;;;;;5020023;28;20457;-77
2021/08/20 11:56:47;;;;;;;5.80;3.35;;;21.90;86.60;;;;;;5022733;28;20045;-76
2021/08/20 11:59:13;;;;;;;6.20;3.00;;;22.10;86.90;;;;;;5023326;28;20491;-74
2021/08/20 12:01:40;;;;;;;8.38;3.00;;;22.10;86.70;;;;;;5022748;28;20018;-74
2021/08/20 12:04:07;;;;;;;5.35;3.20;;;22.20;86.70;;;;;;5022448;28;20044;-75
2021/08/20 12:06:34;;;;;;;7.32;3.15;;;22.30;86.50;;;;;;5022250;28;20080;-75
2021/08/20 12:09:26;;;;;;;5.82;3.13;;;22.30;86.40;;;;;;5024121;28;20025;-78
2021/08/20 12:11:56;;;;;;;6.57;3.25;;;22.30;86.50;;;;;;5020164;28;20065;-78
2021/08/20 12:14:28;;;;;;;6.40;3.75;;;22.30;86.40;;;;;;5021269;28;20033;-78
2021/08/20 12:16:56;;;;;;;6.68;3.05;;;22.30;86.40;;;;;;5022524;28;20032;-79
2021/08/20 12:19:27;;;;;;;6.80;3.67;;;22.30;86.40;;;;;;5017267;28;20168;-76
2021/08/20 12:22:07;;;;;;;9.30;3.58;;;22.50;86.10;;;;;;5023375;28;20033;-76
2021/08/20 12:24:40;;;;;;;8.05;4.00;;;22.50;85.50;;;;;;5020141;28;20032;-75
2021/08/20 12:27:15;;;;;;;7.25;3.28;;;22.30;85.50;;;;;;5023748;28;20029;-76
2021/08/20 12:29:42;;;;;;;8.35;4.32;;;22.20;85.70;;;;;;5023403;28;20132;-75
2021/08/20 12:32:08;;;;;;;7.38;3.67;;;22.10;86.00;;;;;;5023028;28;20444;-75
2021/08/20 12:34:37;;;;;;;7.72;3.90;;;22.20;85.80;;;;;;5021150;28;20044;-76
2021/08/20 12:37:06;;;;;;;6.60;3.30;;;22.40;85.50;;;;;;5024365;28;20029;-77
2021/08/20 12:39:43;;;;;;;6.95;3.60;;;22.50;85.20;;;;;;5026216;28;20117;-76